createdAt,value
2023-03-29T00:00:27.083Z,71.2086
2023-03-29T00:01:35.965Z,71.2542
2023-03-29T00:02:33.708Z,72.7236
2023-03-29T00:03:36.399Z,73.9215
2023-03-29T00:05:41.232Z,75.5533
2023-03-29T00:06:43.791Z,77.1124
2023-03-29T00:08:48.593Z,78.3696
2023-03-29T00:09:51.073Z,78.7937
2023-03-29T00:10:53.616Z,79.3691
2023-03-29T00:11:56.140Z,79.6022
2023-03-29T00:14:00.996Z,77.1276
2023-03-29T00:15:03.436Z,76.4449
2023-03-29T00:16:05.999Z,76.8487
2023-03-29T00:17:08.544Z,76.2889
2023-03-29T00:18:11.206Z,75.8037
2023-03-29T00:19:13.694Z,75.8838
2023-03-29T00:20:16.241Z,75.0694
2023-03-29T00:22:21.040Z,75.1582
2023-03-29T00:23:23.528Z,74.4763
2023-03-29T00:25:28.413Z,73.9138
2023-03-29T00:26:30.861Z,73.9861
2023-03-29T00:27:33.349Z,73.5695
2023-03-29T00:28:35.901Z,75.8244
2023-03-29T00:30:40.722Z,73.9967
2023-03-29T00:31:43.211Z,74.6356
2023-03-29T00:33:48.070Z,71.0786
2023-03-29T00:34:50.593Z,67.8515
2023-03-29T00:35:53.089Z,68.9299
2023-03-29T00:36:55.605Z,70.6905
2023-03-29T00:37:58.132Z,71.0488
2023-03-29T00:39:00.615Z,71.0437
2023-03-29T00:40:03.131Z,69.0541
2023-03-29T00:42:07.921Z,71.3403
2023-03-29T00:43:10.371Z,71.0916
2023-03-29T00:45:15.234Z,68.0636
2023-03-29T00:47:20.166Z,67.8234
2023-03-29T00:48:22.624Z,69.1169
2023-03-29T00:50:27.478Z,68.6598
2023-03-29T00:51:29.967Z,69.9277
2023-03-29T00:52:32.437Z,70.2594
2023-03-29T00:53:34.914Z,71.0823
2023-03-29T00:54:37.440Z,71.3564
2023-03-29T00:55:39.948Z,69.8330
2023-03-29T00:56:42.590Z,69.3451
2023-03-29T00:58:47.398Z,67.4077
2023-03-29T00:59:49.848Z,67.1221
2023-03-29T01:00:52.435Z,68.9764
2023-03-29T01:01:55.232Z,69.1899
2023-03-29T01:02:58.264Z,65.8014
2023-03-29T01:05:03.192Z,65.0328
2023-03-29T01:06:05.752Z,64.9734
2023-03-29T01:08:10.617Z,66.5523
2023-03-29T01:09:13.153Z,67.2386
2023-03-29T01:10:15.685Z,66.4759
2023-03-29T01:11:18.188Z,66.8217
2023-03-29T01:13:23.168Z,66.6719
2023-03-29T01:14:25.670Z,68.0690
2023-03-29T01:15:28.258Z,67.8810
2023-03-29T01:16:30.812Z,67.8326
2023-03-29T01:19:38.202Z,68.6637
2023-03-29T01:21:43.128Z,66.4019
2023-03-29T01:22:45.723Z,66.8624
2023-03-29T01:24:50.587Z,66.0183
2023-03-29T01:25:53.130Z,66.8457
2023-03-29T01:26:55.636Z,66.8525
2023-03-29T01:27:58.145Z,66.5847
2023-03-29T01:29:00.690Z,66.5497
2023-03-29T01:30:03.172Z,67.3288
2023-03-29T01:31:05.734Z,67.6924
2023-03-29T01:33:10.624Z,65.6934
2023-03-29T01:34:13.189Z,64.9217
2023-03-29T01:35:15.668Z,65.7406
2023-03-29T01:36:18.274Z,66.8256
2023-03-29T01:37:20.838Z,67.6580
2023-03-29T01:38:23.404Z,67.7461
2023-03-29T01:39:25.871Z,68.6351
2023-03-29T01:41:30.752Z,66.0902
2023-03-29T01:42:33.296Z,65.8255
2023-03-29T01:43:35.900Z,66.9374
2023-03-29T01:44:38.435Z,66.8594
2023-03-29T01:45:40.892Z,66.8641
2023-03-29T01:46:43.439Z,67.1944
2023-03-29T01:47:46.060Z,66.3413
2023-03-29T01:49:50.939Z,66.2574
2023-03-29T01:50:53.547Z,67.1273
2023-03-29T01:51:56.101Z,67.7707
2023-03-29T01:52:58.640Z,67.9067
2023-03-29T01:55:03.490Z,68.8277
2023-03-29T01:56:05.959Z,68.3781
2023-03-29T01:57:08.498Z,67.2499
2023-03-29T01:58:10.953Z,68.2807
2023-03-29T01:59:13.508Z,68.2359
2023-03-29T02:00:16.066Z,68.8595
2023-03-29T02:01:18.600Z,67.4050
2023-03-29T02:02:21.169Z,68.0298
2023-03-29T02:03:23.794Z,68.8569
2023-03-29T02:04:26.406Z,69.6492
2023-03-29T02:06:31.272Z,67.8177
2023-03-29T02:08:36.087Z,68.8882
2023-03-29T02:09:38.635Z,67.2477
2023-03-29T02:10:41.113Z,67.4405
2023-03-29T02:11:43.578Z,68.4381
2023-03-29T02:12:46.166Z,70.9141
2023-03-29T02:13:48.713Z,68.2223
2023-03-29T02:14:51.200Z,67.3469
2023-03-29T02:15:53.748Z,68.1122
2023-03-29T02:17:58.619Z,71.5141
2023-03-29T02:19:01.392Z,69.6163
2023-03-29T02:20:03.846Z,68.8184
2023-03-29T02:21:06.402Z,70.5996
2023-03-29T02:22:08.891Z,70.2652
2023-03-29T02:23:11.433Z,72.1297
2023-03-29T02:25:16.278Z,71.1337
2023-03-29T02:26:18.790Z,68.0665
2023-03-29T02:27:21.332Z,67.1916
2023-03-29T02:28:23.790Z,68.7731
2023-03-29T02:29:26.336Z,69.4500
2023-03-29T02:31:31.269Z,70.2154
2023-03-29T02:33:36.089Z,69.4999
2023-03-29T02:34:38.672Z,69.2050
2023-03-29T02:36:43.552Z,67.9781
2023-03-29T02:37:46.061Z,70.9816
2023-03-29T02:38:48.563Z,70.6051
2023-03-29T02:39:51.085Z,69.1807
2023-03-29T02:41:55.934Z,67.1518
2023-03-29T02:42:58.416Z,66.9521
2023-03-29T02:44:00.990Z,71.8838
2023-03-29T02:45:03.538Z,73.4028
2023-03-29T02:47:08.390Z,70.2822
2023-03-29T02:49:13.266Z,69.9326
2023-03-29T02:50:15.796Z,71.8298
2023-03-29T02:51:20.016Z,69.0840
2023-03-29T02:52:18.413Z,71.4947
2023-03-29T02:53:21.067Z,69.1560
2023-03-29T02:54:23.565Z,69.1662
2023-03-29T02:55:26.163Z,68.0182
2023-03-29T02:56:28.680Z,71.4954
2023-03-29T02:57:31.198Z,73.4362
2023-03-29T02:58:33.753Z,73.5608
2023-03-29T02:59:36.255Z,73.9962
2023-03-29T03:00:38.836Z,74.4445
2023-03-29T03:01:41.331Z,73.4925
2023-03-29T03:03:46.374Z,73.9037
2023-03-29T03:04:48.966Z,73.1035
2023-03-29T03:06:53.851Z,72.4348
2023-03-29T03:07:56.387Z,72.8876
2023-03-29T03:08:58.905Z,69.5294
2023-03-29T03:10:01.469Z,68.8845
2023-03-29T03:11:04.226Z,70.4716
2023-03-29T03:13:09.520Z,69.9901
2023-03-29T03:14:12.022Z,69.3337
2023-03-29T03:15:14.573Z,70.0178
2023-03-29T03:16:17.070Z,70.9330
2023-03-29T03:18:21.930Z,74.0653
2023-03-29T03:19:24.468Z,73.0254
2023-03-29T03:20:27.076Z,72.3025
2023-03-29T03:21:29.596Z,73.4859
2023-03-29T03:23:34.610Z,72.4311
2023-03-29T03:24:37.114Z,72.2972
2023-03-29T03:25:39.653Z,71.6314
2023-03-29T03:26:42.138Z,71.5305
2023-03-29T03:31:54.349Z,66.1980
2023-03-29T03:32:57.156Z,66.3396
2023-03-29T03:33:59.684Z,68.7592
2023-03-29T03:35:02.237Z,68.9213
2023-03-29T03:36:04.830Z,68.8465
2023-03-29T03:37:07.336Z,69.3720
2023-03-29T03:38:09.894Z,71.1704
2023-03-29T03:39:12.394Z,71.8362
2023-03-29T03:40:14.949Z,69.8000
2023-03-29T03:41:17.415Z,69.7169
2023-03-29T03:42:19.957Z,68.3251
2023-03-29T03:43:22.610Z,70.0269
2023-03-29T03:45:27.626Z,69.4082
2023-03-29T03:47:32.661Z,69.5472
2023-03-29T03:48:35.143Z,71.0416
2023-03-29T03:49:37.641Z,73.0424
2023-03-29T03:50:40.115Z,73.3442
2023-03-29T03:51:42.642Z,73.0493
2023-03-29T03:52:45.219Z,73.6933
2023-03-29T03:53:47.706Z,72.4171
2023-03-29T03:54:50.245Z,72.2007
2023-03-29T03:55:52.852Z,74.0204
2023-03-29T03:56:55.401Z,71.6946
2023-03-29T03:57:57.959Z,71.2104
2023-03-29T03:59:00.550Z,71.7568
2023-03-29T04:00:03.141Z,73.3225
2023-03-29T04:01:05.584Z,71.1373
2023-03-29T04:02:08.138Z,69.9305
2023-03-29T04:04:13.047Z,70.0786
2023-03-29T04:05:15.493Z,71.6802
2023-03-29T04:06:18.086Z,72.7949
2023-03-29T04:07:20.592Z,70.8724
2023-03-29T04:08:23.171Z,69.5693
2023-03-29T04:10:27.982Z,72.0865
2023-03-29T04:11:30.481Z,73.4556
2023-03-29T04:12:33.033Z,72.9272
2023-03-29T04:13:35.576Z,67.9760
2023-03-29T04:15:40.398Z,69.5478
2023-03-29T04:16:42.964Z,70.0898
2023-03-29T04:18:47.829Z,67.9305
2023-03-29T04:19:50.376Z,69.6653
2023-03-29T04:20:52.947Z,69.2394
2023-03-29T04:21:55.390Z,69.6606
2023-03-29T04:22:57.887Z,69.6958
2023-03-29T04:25:02.715Z,68.4694
2023-03-29T04:26:05.266Z,68.0931
2023-03-29T04:28:10.209Z,65.7632
2023-03-29T04:29:12.724Z,64.8658
2023-03-29T04:30:15.229Z,65.3104
2023-03-29T04:31:17.782Z,65.7307
2023-03-29T04:32:20.277Z,67.2904
2023-03-29T04:33:22.776Z,67.3525
2023-03-29T04:34:25.264Z,67.2195
2023-03-29T04:35:27.739Z,66.4551
2023-03-29T04:37:32.646Z,68.4048
2023-03-29T04:38:35.153Z,69.4568
2023-03-29T04:39:37.647Z,69.2580
2023-03-29T04:40:40.141Z,68.2038
2023-03-29T04:42:44.976Z,68.7291
2023-03-29T04:43:47.509Z,67.4251
2023-03-29T04:44:50.080Z,67.0927
2023-03-29T04:45:52.656Z,67.4985
2023-03-29T04:46:55.358Z,65.8961
2023-03-29T04:47:57.912Z,67.7780
2023-03-29T04:49:00.479Z,68.8178
2023-03-29T04:50:02.964Z,69.2566
2023-03-29T04:51:05.482Z,68.4611
2023-03-29T04:52:08.014Z,66.1227
2023-03-29T04:53:10.528Z,62.9774
2023-03-29T04:54:13.088Z,62.0663
2023-03-29T04:55:15.649Z,60.7258
2023-03-29T04:56:18.091Z,60.3229
2023-03-29T04:57:20.685Z,58.8545
2023-03-29T04:59:25.508Z,60.0322
2023-03-29T05:00:28.064Z,59.2457
2023-03-29T05:01:30.587Z,58.7131
2023-03-29T05:02:33.146Z,59.5822
2023-03-29T05:03:35.766Z,60.5530
2023-03-29T05:05:40.584Z,60.1126
2023-03-29T05:06:43.170Z,59.8984
2023-03-29T05:07:45.717Z,60.1208
2023-03-29T05:08:48.172Z,60.4166
2023-03-29T05:09:50.684Z,60.4221
2023-03-29T05:10:53.173Z,59.5390
2023-03-29T05:11:55.727Z,58.9011
2023-03-29T05:14:00.509Z,58.8385
2023-03-29T05:18:10.266Z,60.3989
2023-03-29T05:19:12.810Z,58.9187
2023-03-29T05:20:15.458Z,59.1945
2023-03-29T05:22:20.300Z,60.5791
2023-03-29T05:24:25.073Z,61.0989
2023-03-29T05:25:27.865Z,60.8153
2023-03-29T05:26:30.363Z,61.6409
2023-03-29T05:27:33.021Z,62.1041
2023-03-29T05:28:35.576Z,62.4483
2023-03-29T05:29:38.112Z,61.7690
2023-03-29T05:30:40.599Z,61.6293
2023-03-29T05:31:43.173Z,60.9930
2023-03-29T05:32:45.739Z,60.3899
2023-03-29T05:33:48.188Z,61.2844
2023-03-29T05:35:53.114Z,59.8605
2023-03-29T05:36:55.571Z,59.7929
2023-03-29T05:37:58.092Z,63.5528
2023-03-29T05:40:05.825Z,64.3996
2023-03-29T05:41:04.589Z,61.6136
2023-03-29T05:43:09.596Z,61.5330
2023-03-29T05:44:12.139Z,60.3962
2023-03-29T05:45:14.677Z,60.6622
2023-03-29T05:46:17.234Z,60.5538
2023-03-29T05:47:19.944Z,62.5727
2023-03-29T05:49:24.812Z,62.5751
2023-03-29T05:50:27.330Z,62.3245
2023-03-29T05:52:32.204Z,61.4221
2023-03-29T05:53:34.684Z,62.1117
2023-03-29T05:55:39.466Z,63.5500
2023-03-29T05:56:41.995Z,63.9017
2023-03-29T05:58:46.845Z,63.0411
2023-03-29T05:59:49.283Z,63.5107
2023-03-29T06:00:51.803Z,62.8952
2023-03-29T06:01:54.383Z,63.8421
2023-03-29T06:03:03.654Z,63.3305
2023-03-29T06:05:03.156Z,64.1075
2023-03-29T06:06:05.743Z,63.8211
2023-03-29T06:07:08.192Z,63.8682
2023-03-29T06:08:10.742Z,64.9217
2023-03-29T06:09:13.263Z,64.9224
2023-03-29T06:10:15.757Z,65.8198
2023-03-29T06:11:18.302Z,63.4733
2023-03-29T06:20:39.535Z,61.4941
2023-03-29T06:22:44.328Z,60.7140
2023-03-29T06:23:46.765Z,59.8435
2023-03-29T06:24:49.410Z,60.3970
2023-03-29T06:25:51.871Z,60.7202
2023-03-29T06:27:56.795Z,60.7032
2023-03-29T06:28:59.247Z,60.5009
2023-03-29T06:30:01.744Z,60.8766
2023-03-29T06:31:04.468Z,61.4022
2023-03-29T06:32:07.596Z,61.3438
2023-03-29T06:34:12.371Z,62.9180
2023-03-29T06:35:14.855Z,60.7632
2023-03-29T06:37:19.712Z,61.2280
2023-03-29T06:38:22.148Z,60.4945
2023-03-29T06:39:24.621Z,59.5235
2023-03-29T06:40:27.078Z,61.0504
2023-03-29T06:41:29.542Z,60.6103
2023-03-29T06:42:31.961Z,59.8833
2023-03-29T06:44:36.661Z,59.7056
2023-03-29T06:46:41.516Z,58.0070
2023-03-29T06:47:43.986Z,59.0218
2023-03-29T06:48:46.427Z,58.5848
2023-03-29T06:49:48.869Z,58.7951
2023-03-29T06:50:51.369Z,58.8800
2023-03-29T06:52:56.153Z,58.2753
2023-03-29T06:53:58.586Z,60.1580
2023-03-29T06:55:01.110Z,60.2836
2023-03-29T06:56:03.559Z,58.7362
2023-03-29T06:57:06.058Z,59.8081
2023-03-29T06:58:08.514Z,59.8784
2023-03-29T06:59:10.969Z,59.3441
2023-03-29T07:00:13.444Z,58.3492
2023-03-29T07:01:16.011Z,57.9665
2023-03-29T07:02:18.486Z,57.4413
2023-03-29T07:04:23.270Z,57.7326
2023-03-29T07:05:25.726Z,57.9783
2023-03-29T07:06:28.164Z,58.2864
2023-03-29T07:07:30.617Z,58.3831
2023-03-29T07:08:33.050Z,59.8516
2023-03-29T07:09:35.559Z,60.6864
2023-03-29T07:10:38.031Z,63.2082
2023-03-29T07:12:42.770Z,68.7059
2023-03-29T07:13:45.193Z,67.4727
2023-03-29T07:14:47.647Z,67.0523
2023-03-29T07:15:50.105Z,69.6762
2023-03-29T07:17:54.895Z,69.9512
2023-03-29T07:18:57.338Z,70.8929
2023-03-29T07:19:58.420Z,70.5512
2023-03-29T07:22:03.161Z,70.2344
2023-03-29T07:23:05.571Z,71.1497
2023-03-29T07:24:08.063Z,72.1014
2023-03-29T07:25:10.540Z,70.0344
2023-03-29T07:26:13.026Z,69.9318
2023-03-29T07:27:15.413Z,71.6530
2023-03-29T07:28:17.879Z,69.9735
2023-03-29T07:29:20.359Z,70.1853
2023-03-29T07:30:22.821Z,68.6429
2023-03-29T07:31:25.278Z,69.9648
2023-03-29T07:32:27.825Z,69.6889
2023-03-29T07:34:32.656Z,69.7588
2023-03-29T07:35:35.193Z,70.5687
2023-03-29T07:37:39.922Z,70.3236
2023-03-29T07:38:42.330Z,70.7440
2023-03-29T07:39:44.773Z,70.4892
2023-03-29T07:40:47.233Z,70.4425
2023-03-29T07:42:52.635Z,69.8702
2023-03-29T07:43:55.039Z,66.0981
2023-03-29T07:44:57.477Z,66.7591
2023-03-29T07:45:59.950Z,70.1526
2023-03-29T07:47:02.352Z,69.1318
2023-03-29T07:48:04.932Z,70.2168
2023-03-29T07:49:07.352Z,67.5479
2023-03-29T07:50:09.795Z,63.7593
2023-03-29T07:51:12.206Z,68.3387
2023-03-29T07:52:14.627Z,69.2631
2023-03-29T07:53:17.055Z,68.1929
2023-03-29T07:54:19.538Z,69.0700
2023-03-29T07:55:22.035Z,68.4409
2023-03-29T07:56:24.458Z,66.0104
2023-03-29T07:57:27.219Z,65.5158
2023-03-29T07:59:32.063Z,64.2497
2023-03-29T08:00:34.555Z,63.2796
2023-03-29T08:02:39.170Z,64.2609
2023-03-29T08:03:41.654Z,65.6246
2023-03-29T08:05:46.369Z,65.7740
2023-03-29T08:06:48.774Z,65.3585
2023-03-29T08:07:51.236Z,67.2437
2023-03-29T08:08:53.633Z,66.6497
2023-03-29T08:09:56.031Z,64.8666
2023-03-29T08:10:58.476Z,66.0923
2023-03-29T08:12:00.914Z,64.6524
2023-03-29T08:13:03.330Z,62.3442
2023-03-29T08:14:05.774Z,64.9184
2023-03-29T08:16:10.442Z,67.6725
2023-03-29T08:17:12.941Z,66.4974
2023-03-29T08:19:17.711Z,68.3727
2023-03-29T08:20:20.173Z,68.4810
2023-03-29T08:22:24.843Z,67.7200
2023-03-29T08:24:29.545Z,68.4782
2023-03-29T08:25:32.044Z,68.7264
2023-03-29T08:26:34.431Z,67.4648
2023-03-29T08:27:36.902Z,68.8219
2023-03-29T08:29:41.824Z,67.1869
2023-03-29T08:31:46.526Z,68.8516
2023-03-29T08:32:51.078Z,66.1316
2023-03-29T08:33:51.082Z,65.1581
2023-03-29T08:35:55.825Z,66.5987
2023-03-29T08:38:00.507Z,66.5097
2023-03-29T08:39:02.979Z,65.4231
2023-03-29T08:40:05.372Z,64.3578
2023-03-29T08:41:07.839Z,64.3837
2023-03-29T08:42:10.218Z,64.1410
2023-03-29T08:43:12.676Z,65.2549
2023-03-29T08:44:15.056Z,64.0890
2023-03-29T08:46:19.802Z,63.4290
2023-03-29T08:47:22.247Z,62.4942
2023-03-29T08:49:26.931Z,63.4463
2023-03-29T08:51:31.524Z,61.1485
2023-03-29T08:52:33.993Z,63.3955
2023-03-29T08:53:36.391Z,65.3238
2023-03-29T08:54:38.900Z,62.0993
2023-03-29T08:55:41.386Z,60.5212
2023-03-29T08:57:46.019Z,60.5615
2023-03-29T08:58:48.384Z,60.6892
2023-03-29T08:59:50.810Z,62.6593
2023-03-29T09:00:53.233Z,59.7759
2023-03-29T09:02:58.313Z,60.0968
2023-03-29T09:04:00.902Z,60.1454
2023-03-29T09:06:05.568Z,58.4985
2023-03-29T09:08:10.351Z,58.8975
2023-03-29T09:09:12.776Z,59.4348
2023-03-29T09:11:17.529Z,58.1756
2023-03-29T09:12:19.989Z,58.3933
2023-03-29T09:13:22.387Z,58.9413
2023-03-29T09:14:24.835Z,59.2126
2023-03-29T09:15:27.260Z,59.1757
2023-03-29T09:16:29.763Z,58.8802
2023-03-29T09:17:32.218Z,60.2819
2023-03-29T09:18:34.688Z,60.0764
2023-03-29T09:19:37.072Z,59.7245
2023-03-29T09:20:39.537Z,60.8059
2023-03-29T09:21:41.986Z,63.0261
2023-03-29T09:22:44.376Z,62.8788
2023-03-29T09:24:49.110Z,61.0702
2023-03-29T09:25:54.202Z,61.0890
2023-03-29T09:26:52.221Z,62.2999
2023-03-29T09:27:54.675Z,60.6349
2023-03-29T09:28:57.173Z,62.0265
2023-03-29T09:29:59.560Z,60.5902
2023-03-29T09:31:02.270Z,60.2081
2023-03-29T09:32:04.868Z,59.7799
2023-03-29T09:33:07.363Z,60.9068
2023-03-29T09:34:09.781Z,60.8335
2023-03-29T09:36:14.604Z,60.9797
2023-03-29T09:37:17.004Z,61.8592
2023-03-29T09:38:19.516Z,62.5125
2023-03-29T09:39:21.942Z,61.8238
2023-03-29T09:41:26.646Z,63.9818
2023-03-29T09:42:29.073Z,62.9538
2023-03-29T09:43:31.536Z,63.0000
2023-03-29T09:44:33.936Z,60.5320
2023-03-29T09:46:38.651Z,62.3732
2023-03-29T09:47:41.141Z,63.8690
2023-03-29T09:48:43.597Z,60.4104
2023-03-29T09:49:46.102Z,61.8809
2023-03-29T09:50:48.530Z,60.6655
2023-03-29T09:52:53.268Z,59.6777
2023-03-29T09:53:55.752Z,61.3345
2023-03-29T09:56:00.533Z,60.5437
2023-03-29T09:57:03.058Z,60.1200
2023-03-29T09:58:05.468Z,61.2958
2023-03-29T09:59:07.918Z,62.1582
2023-03-29T10:00:10.352Z,62.5835
2023-03-29T10:01:12.856Z,62.8363
2023-03-29T10:03:17.504Z,59.9107
2023-03-29T10:04:19.981Z,61.4711
2023-03-29T10:06:24.638Z,61.7765
2023-03-29T10:07:27.082Z,61.2621
2023-03-29T10:08:29.483Z,60.5705
2023-03-29T10:09:32.074Z,60.1777
2023-03-29T10:10:34.481Z,60.1152
2023-03-29T10:11:37.022Z,59.9013
2023-03-29T10:12:39.454Z,59.1701
2023-03-29T10:13:41.834Z,58.5672
2023-03-29T10:15:46.494Z,58.8507
2023-03-29T10:16:49.013Z,58.1654
2023-03-29T10:18:53.638Z,59.6857
2023-03-29T10:19:56.061Z,59.9868
2023-03-29T10:20:58.461Z,58.5982
2023-03-29T10:22:00.867Z,59.0148
2023-03-29T10:23:03.307Z,58.8657
2023-03-29T10:24:05.681Z,56.9668
2023-03-29T10:25:08.087Z,58.0328
2023-03-29T10:27:12.740Z,58.4418
2023-03-29T10:28:15.119Z,59.1854
2023-03-29T10:29:17.554Z,59.4356
2023-03-29T10:30:19.945Z,57.5227
2023-03-29T10:31:22.378Z,57.2448
2023-03-29T10:32:24.857Z,56.6208
2023-03-29T10:33:27.197Z,58.1282
2023-03-29T10:34:29.670Z,58.1327
2023-03-29T10:35:32.112Z,56.1442
2023-03-29T10:36:34.510Z,57.3280
2023-03-29T10:37:36.864Z,56.2329
2023-03-29T10:39:41.486Z,52.2304
2023-03-29T10:40:43.801Z,52.8825
2023-03-29T10:41:46.187Z,54.0719
2023-03-29T10:42:48.527Z,52.5220
2023-03-29T10:43:51.149Z,50.7976
2023-03-29T10:44:54.337Z,53.4939
2023-03-29T16:02:32.911Z,48.9487
2023-03-29T16:03:33.139Z,48.7728
2023-03-29T16:04:33.414Z,48.1475
2023-03-29T16:05:33.618Z,48.3080
2023-03-29T16:06:33.795Z,49.2186
2023-03-29T16:07:34.047Z,51.7462
2023-03-29T16:08:34.275Z,52.3793
2023-03-29T16:09:34.445Z,51.2248
2023-03-29T16:10:34.653Z,51.7808
2023-03-29T16:11:34.854Z,51.4329
2023-03-29T16:12:35.045Z,52.0707
2023-03-29T16:13:35.271Z,56.0684
2023-03-29T16:14:35.404Z,59.2690
2023-03-29T16:15:35.650Z,58.5561
2023-03-29T16:16:36.987Z,58.2498
2023-03-29T16:17:37.248Z,61.2857
2023-03-29T16:18:37.463Z,62.8017
2023-03-29T16:19:37.749Z,60.9312
2023-03-29T16:21:37.987Z,61.3546
2023-03-29T16:22:38.239Z,61.1680
2023-03-29T16:23:38.442Z,61.4333
2023-03-29T16:24:38.638Z,61.7627
2023-03-29T16:25:38.852Z,61.1156
2023-03-29T16:26:39.124Z,63.9171
2023-03-29T16:27:39.288Z,61.4959
2023-03-29T16:28:39.498Z,62.6706
2023-03-29T16:29:39.700Z,64.2762
2023-03-29T16:30:39.906Z,63.8917
2023-03-29T16:31:40.331Z,62.7104
2023-03-29T16:32:40.750Z,63.8329
2023-03-29T16:33:41.003Z,63.6739
2023-03-29T16:34:41.514Z,61.7380
2023-03-29T16:35:42.016Z,61.1420
2023-03-29T16:36:42.170Z,63.6504
2023-03-29T16:37:42.391Z,63.0287
2023-03-29T16:38:42.585Z,64.4255
2023-03-29T16:39:42.825Z,65.4575
2023-03-29T16:40:43.005Z,65.9344
2023-03-29T16:41:43.198Z,64.3892
2023-03-29T16:42:43.419Z,65.2598
2023-03-29T16:43:43.615Z,65.5185
2023-03-29T16:44:43.847Z,66.0926
2023-03-29T16:45:44.026Z,67.1971
2023-03-29T16:46:44.234Z,67.8419
2023-03-29T16:47:44.567Z,68.9558
2023-03-29T16:48:44.857Z,67.4269
2023-03-29T16:49:45.953Z,69.5570
2023-03-29T16:50:46.228Z,68.8010
2023-03-29T16:51:46.451Z,66.7393
2023-03-29T16:52:46.702Z,68.3920
2023-03-29T16:53:46.915Z,68.3894
2023-03-29T16:54:47.133Z,69.4864
2023-03-29T16:55:47.352Z,69.2573
2023-03-29T16:56:47.593Z,69.0910
2023-03-29T16:57:47.757Z,70.5664
2023-03-29T16:58:48.022Z,69.1174
2023-03-29T16:59:48.288Z,68.3644
2023-03-29T17:00:48.697Z,71.1724
2023-03-29T17:01:48.926Z,70.2230
2023-03-29T17:02:49.229Z,67.0149
2023-03-29T17:03:49.532Z,68.1769
2023-03-29T17:04:49.931Z,70.6188
2023-03-29T17:05:50.258Z,69.9170
2023-03-29T17:06:50.694Z,69.2168
2023-03-29T17:07:50.899Z,68.0043
2023-03-29T17:08:51.136Z,68.6987
2023-03-29T17:09:51.371Z,71.1800
2023-03-29T17:10:51.596Z,68.4860
2023-03-29T17:11:52.819Z,70.8287
2023-03-29T17:12:53.164Z,69.4644
2023-03-29T17:13:53.499Z,71.7820
2023-03-29T17:14:53.825Z,71.8483
2023-03-29T17:15:54.109Z,70.1704
2023-03-29T17:16:54.339Z,69.1740
2023-03-29T17:17:54.591Z,69.3118
2023-03-29T17:18:54.837Z,71.5207
2023-03-29T17:19:55.192Z,69.7502
2023-03-29T17:20:55.460Z,67.7939
2023-03-29T17:21:55.667Z,69.3704
2023-03-29T17:22:55.973Z,68.5474
2023-03-29T17:23:56.240Z,69.3391
2023-03-29T17:24:56.573Z,69.2373
2023-03-29T17:25:56.778Z,69.5172
2023-03-29T17:26:57.048Z,71.1667
2023-03-29T17:27:57.293Z,70.3916
2023-03-29T17:28:57.503Z,68.9088
2023-03-29T17:30:57.889Z,69.8268
2023-03-29T17:31:58.082Z,71.1680
2023-03-29T17:32:58.299Z,70.9688
2023-03-29T17:33:58.565Z,69.8586
2023-03-29T17:34:58.792Z,71.3063
2023-03-29T17:35:59.288Z,72.5405
2023-03-29T17:36:59.743Z,72.4818
2023-03-29T17:37:59.957Z,73.0626
2023-03-29T17:39:02.364Z,70.6554
2023-03-29T17:40:00.616Z,70.6680
2023-03-29T17:41:00.930Z,73.4026
2023-03-29T17:42:01.168Z,72.5963
2023-03-29T17:43:01.592Z,71.6480
2023-03-29T17:44:01.964Z,73.9805
2023-03-29T17:45:02.205Z,74.4911
2023-03-29T17:46:02.611Z,74.6773
2023-03-29T17:47:03.361Z,74.7397
2023-03-29T17:48:06.246Z,74.7615
2023-03-29T17:49:04.656Z,74.1076
2023-03-29T17:50:05.272Z,75.2780
2023-03-29T17:51:05.625Z,73.7470
2023-03-29T17:52:05.834Z,73.3982
2023-03-29T17:53:06.179Z,72.3507
2023-03-29T17:54:06.480Z,72.7755
2023-03-29T17:55:06.664Z,71.0771
2023-03-29T17:56:06.942Z,70.8604
2023-03-29T17:57:07.171Z,71.9195
2023-03-29T17:58:07.406Z,72.1776
2023-03-29T17:59:07.642Z,73.8702
2023-03-29T18:00:07.938Z,74.8844
2023-03-29T18:01:08.519Z,73.8419
2023-03-29T18:02:08.841Z,72.1890
2023-03-29T18:03:09.071Z,72.5440
2023-03-29T18:04:09.476Z,73.2881
2023-03-29T18:05:09.700Z,72.6735
2023-03-29T18:06:09.916Z,72.4764
2023-03-29T18:07:10.093Z,72.5804
2023-03-29T18:08:10.328Z,72.1605
2023-03-29T18:09:10.520Z,71.9453
2023-03-29T18:10:10.951Z,71.8655
2023-03-29T18:11:11.231Z,71.5700
2023-03-29T18:12:11.481Z,72.2793
2023-03-29T18:13:11.832Z,72.6569
2023-03-29T18:14:12.053Z,72.7368
2023-03-29T18:15:12.251Z,74.1059
2023-03-29T18:16:12.487Z,72.3630
2023-03-29T18:17:12.734Z,71.1060
2023-03-29T18:18:12.910Z,72.5307
2023-03-29T18:19:13.182Z,72.7191
2023-03-29T18:20:13.428Z,72.6370
2023-03-29T18:21:13.715Z,71.9053
2023-03-29T18:22:14.555Z,71.3269
2023-03-29T18:23:15.074Z,71.1864
2023-03-29T18:24:15.478Z,71.3662
2023-03-29T18:25:15.795Z,71.5096
2023-03-29T18:26:16.272Z,72.1711
2023-03-29T18:27:16.536Z,74.2583
2023-03-29T18:28:16.729Z,74.5343
2023-03-29T18:29:17.014Z,75.1998
2023-03-29T18:30:17.292Z,74.8462
2023-03-29T18:31:17.739Z,74.3218
2023-03-29T18:32:18.047Z,72.1349
2023-03-29T18:33:18.328Z,71.1363
2023-03-29T18:34:18.541Z,71.8290
2023-03-29T18:35:18.818Z,72.4125
2023-03-29T18:36:19.074Z,71.3699
2023-03-29T18:37:19.643Z,72.7537
2023-03-29T18:38:19.933Z,74.1119
2023-03-29T18:39:20.171Z,74.2964
2023-03-29T18:40:20.373Z,72.6679
2023-03-29T18:41:20.666Z,73.4566
2023-03-29T18:43:21.011Z,71.7170
2023-03-29T18:44:21.224Z,72.7923
2023-03-29T18:45:21.650Z,72.3467
2023-03-29T18:46:22.110Z,72.9065
2023-03-29T18:47:22.462Z,76.0385
2023-03-29T18:48:22.859Z,79.6064
2023-03-29T18:49:23.072Z,78.3097
2023-03-29T18:50:23.297Z,77.0096
2023-03-29T18:51:23.493Z,80.1516
2023-03-29T18:53:23.794Z,80.3538
2023-03-29T18:54:24.114Z,78.1950
2023-03-29T18:55:24.364Z,80.2562
2023-03-29T18:56:24.595Z,83.3618
2023-03-29T18:57:24.962Z,83.7523
2023-03-29T18:58:25.193Z,78.4925
2023-03-29T18:59:25.458Z,76.6589
2023-03-29T19:00:25.723Z,77.6888
2023-03-29T19:01:25.972Z,78.7166
2023-03-29T19:02:26.263Z,77.1797
2023-03-29T19:03:26.607Z,77.4923
2023-03-29T19:04:27.025Z,77.5637
2023-03-29T19:05:27.340Z,77.9859
2023-03-29T19:06:27.561Z,77.0018
2023-03-29T19:07:27.874Z,76.9585
2023-03-29T19:08:28.229Z,75.9470
2023-03-29T19:09:28.507Z,76.7889
2023-03-29T19:10:28.813Z,76.0332
2023-03-29T19:11:29.176Z,77.7217
2023-03-29T19:12:29.487Z,78.0269
2023-03-29T19:13:29.764Z,81.9864
2023-03-29T19:14:30.078Z,83.2178
2023-03-29T19:15:30.437Z,81.5341
2023-03-29T19:16:30.755Z,83.5480
2023-03-29T19:17:31.074Z,86.4096
2023-03-29T19:18:31.390Z,88.7131
2023-03-29T19:19:31.663Z,89.0529
2023-03-29T19:20:31.922Z,88.8847
2023-03-29T19:21:32.307Z,88.7964
2023-03-29T19:23:32.748Z,86.7668
2023-03-29T19:24:32.977Z,87.7276
2023-03-29T19:25:33.265Z,87.5128
2023-03-29T19:26:33.614Z,86.8829
2023-03-29T19:27:33.885Z,85.4914
2023-03-29T19:28:34.148Z,86.2400
2023-03-29T19:29:34.410Z,85.1713
2023-03-29T19:30:34.697Z,84.7959
2023-03-29T19:31:35.078Z,81.2649
2023-03-29T19:32:35.340Z,81.4585
2023-03-29T19:33:35.612Z,79.9806
2023-03-29T19:34:35.915Z,74.5805
2023-03-29T19:35:36.343Z,72.7760
2023-03-29T19:36:36.589Z,77.4901
2023-03-29T19:37:36.921Z,74.2283
2023-03-29T19:38:37.162Z,74.2652
2023-03-29T19:39:37.459Z,77.3880
2023-03-29T19:40:37.774Z,75.2440
2023-03-29T19:41:39.441Z,74.5253
2023-03-29T19:42:38.526Z,75.1361
2023-03-29T19:43:38.866Z,77.0801
2023-03-29T19:44:39.158Z,76.6555
2023-03-29T19:45:39.432Z,77.3598
2023-03-29T19:46:39.737Z,77.9268
2023-03-29T19:47:40.114Z,75.7181
2023-03-29T19:48:40.454Z,77.7683
2023-03-29T19:49:40.799Z,76.0377
2023-03-29T19:50:41.195Z,76.2499
2023-03-29T19:51:41.520Z,77.1311
2023-03-29T19:52:41.754Z,77.4150
2023-03-29T19:53:42.056Z,76.8248
2023-03-29T19:54:42.357Z,76.3972